createdAt,value
2023-03-13T00:01:37.154Z,3.70
2023-03-13T00:04:04.686Z,3.80
2023-03-13T00:06:33.446Z,4.00
2023-03-13T00:09:01.314Z,2.97
2023-03-13T00:11:29.248Z,3.53
2023-03-13T00:13:57.492Z,3.07
2023-03-13T00:16:25.591Z,3.30
2023-03-13T00:18:53.784Z,3.00
2023-03-13T00:21:22.313Z,3.63
2023-03-13T00:23:50.139Z,3.00
2023-03-13T00:26:18.888Z,2.30
2023-03-13T00:28:46.580Z,3.03
2023-03-13T00:31:18.367Z,2.83
2023-03-13T00:33:50.163Z,2.80
2023-03-13T00:36:19.446Z,2.83
2023-03-13T00:38:47.209Z,2.63
2023-03-13T00:41:19.363Z,2.40
2023-03-13T00:43:47.325Z,2.63
2023-03-13T00:46:15.890Z,2.50
2023-03-13T00:48:43.794Z,2.50
2023-03-13T00:51:13.250Z,2.37
2023-03-13T00:53:40.697Z,2.23
2023-03-13T00:56:09.844Z,1.97
2023-03-13T00:58:38.568Z,2.70
2023-03-13T01:01:09.974Z,2.27
2023-03-13T01:03:38.319Z,2.47
2023-03-13T01:06:07.317Z,2.57
2023-03-13T01:08:34.869Z,2.20
2023-03-13T01:11:03.680Z,2.17
2023-03-13T01:13:35.191Z,2.03
2023-03-13T01:16:03.889Z,2.50
2023-03-13T01:18:31.391Z,2.00
2023-03-13T01:20:59.346Z,2.23
2023-03-13T01:23:27.315Z,2.73
2023-03-13T01:25:58.210Z,2.37
2023-03-13T01:28:26.379Z,1.77
2023-03-13T01:30:55.122Z,2.03
2023-03-13T01:33:22.690Z,1.90
2023-03-13T01:35:50.523Z,2.20
2023-03-13T01:38:18.148Z,2.03
2023-03-13T01:40:49.595Z,1.93
2023-03-13T01:43:27.871Z,2.10
2023-03-13T01:46:25.303Z,2.00
2023-03-13T01:49:33.809Z,2.00
2023-03-13T01:52:25.826Z,2.40
2023-03-13T01:55:06.435Z,1.87
2023-03-13T01:57:36.326Z,2.10
2023-03-13T02:00:24.225Z,2.40
2023-03-13T02:02:54.132Z,2.13
2023-03-13T02:05:22.733Z,2.20
2023-03-13T02:07:58.439Z,1.90
2023-03-13T02:10:26.687Z,1.70
2023-03-13T02:12:57.524Z,2.30
2023-03-13T02:15:25.977Z,2.10
2023-03-13T02:17:55.027Z,2.60
2023-03-13T02:20:22.494Z,2.40
2023-03-13T02:23:02.733Z,2.10
2023-03-13T02:25:49.532Z,2.13
2023-03-13T02:28:25.493Z,1.80
2023-03-13T02:30:55.053Z,2.13
2023-03-13T02:33:23.730Z,1.73
2023-03-13T02:35:51.300Z,2.03
2023-03-13T02:38:22.427Z,2.10
2023-03-13T02:40:51.714Z,1.80
2023-03-13T02:43:21.501Z,1.90
2023-03-13T02:46:02.630Z,1.80
2023-03-13T02:48:33.514Z,2.27
2023-03-13T02:51:02.003Z,1.90
2023-03-13T02:53:29.589Z,1.73
2023-03-13T02:55:57.331Z,2.10
2023-03-13T02:58:26.153Z,1.77
2023-03-13T03:00:54.388Z,1.77
2023-03-13T03:03:22.197Z,1.90
2023-03-13T03:05:49.626Z,1.90
2023-03-13T03:08:17.209Z,2.23
2023-03-13T03:10:44.735Z,2.17
2023-03-13T03:13:12.326Z,1.83
2023-03-13T03:15:39.840Z,2.20
2023-03-13T03:18:07.611Z,2.17
2023-03-13T03:20:35.097Z,2.10
2023-03-13T03:23:02.768Z,2.10
2023-03-13T03:25:30.304Z,2.13
2023-03-13T03:27:57.942Z,2.20
2023-03-13T03:30:25.788Z,2.33
2023-03-13T03:32:53.587Z,2.03
2023-03-13T03:35:22.987Z,2.37
2023-03-13T03:37:50.564Z,2.03
2023-03-13T03:40:20.548Z,1.97
2023-03-13T03:42:48.363Z,2.30
2023-03-13T03:45:15.888Z,1.83
2023-03-13T03:47:43.368Z,2.40
2023-03-13T03:50:12.344Z,2.23
2023-03-13T03:52:50.332Z,1.93
2023-03-13T03:55:18.155Z,2.50
2023-03-13T03:57:45.735Z,2.10
2023-03-13T04:00:21.226Z,1.97
2023-03-13T04:02:53.559Z,1.73
2023-03-13T04:05:21.132Z,2.00
2023-03-13T04:07:49.377Z,1.90
2023-03-13T04:10:17.064Z,1.90
2023-03-13T04:12:46.028Z,2.17
2023-03-13T04:15:14.035Z,2.00
2023-03-13T04:17:42.883Z,2.10
2023-03-13T04:20:13.673Z,2.10
2023-03-13T04:22:42.575Z,1.90
2023-03-13T04:25:10.539Z,1.97
2023-03-13T04:27:38.251Z,2.00
2023-03-13T04:30:07.248Z,2.00
2023-03-13T04:32:43.339Z,1.80
2023-03-13T04:35:26.284Z,2.17
2023-03-13T04:38:19.824Z,2.20
2023-03-13T04:40:58.009Z,1.70
2023-03-13T04:43:37.441Z,2.00
2023-03-13T04:46:12.345Z,1.50
2023-03-13T04:48:58.316Z,2.10
2023-03-13T04:51:46.361Z,1.90
2023-03-13T04:54:28.748Z,2.10
2023-03-13T04:57:31.542Z,2.20
2023-03-13T05:00:17.085Z,1.80
2023-03-13T05:02:51.991Z,1.67
2023-03-13T05:05:47.407Z,1.83
2023-03-13T05:08:26.038Z,1.43
2023-03-13T05:11:12.318Z,1.90
2023-03-13T05:13:58.722Z,1.90
2023-03-13T05:16:46.503Z,1.80
2023-03-13T05:19:46.424Z,1.70
2023-03-13T05:22:24.199Z,2.00
2023-03-13T05:25:18.147Z,1.70
2023-03-13T05:28:06.393Z,2.00
2023-03-13T05:31:09.613Z,1.90
2023-03-13T06:04:46.941Z,2.00
2023-03-13T06:07:14.857Z,1.70
2023-03-13T06:09:42.492Z,1.70
2023-03-13T06:12:11.536Z,2.10
2023-03-13T06:14:39.749Z,2.37
2023-03-13T06:17:23.260Z,1.70
2023-03-13T06:19:50.755Z,1.80
2023-03-13T06:22:18.279Z,2.37
2023-03-13T06:24:46.971Z,1.73
2023-03-13T06:27:14.393Z,1.93
2023-03-13T06:29:41.963Z,2.10
2023-03-13T06:32:09.452Z,1.80
2023-03-13T06:34:37.662Z,1.90
2023-03-13T06:37:05.148Z,1.70
2023-03-13T06:39:32.671Z,2.07
2023-03-13T06:42:00.082Z,1.80
2023-03-13T06:44:27.625Z,1.73
2023-03-13T06:46:55.170Z,1.90
2023-03-13T06:49:22.651Z,2.10
2023-03-13T06:51:50.072Z,2.10
2023-03-13T06:54:17.707Z,1.80
2023-03-13T06:56:45.132Z,1.60
2023-03-13T06:59:12.623Z,2.07
2023-03-13T07:01:40.050Z,1.57
2023-03-13T07:04:07.747Z,1.87
2023-03-13T07:06:35.257Z,1.63
2023-03-13T07:09:02.798Z,1.60
2023-03-13T07:11:30.265Z,1.73
2023-03-13T07:14:15.344Z,1.60
2023-03-13T07:16:43.513Z,1.47
2023-03-13T07:19:11.155Z,1.70
2023-03-13T07:21:38.646Z,1.50
2023-03-13T07:24:06.345Z,2.00
2023-03-13T07:26:33.965Z,1.60
2023-03-13T07:29:01.453Z,1.50
2023-03-13T07:31:30.507Z,1.43
2023-03-13T07:33:58.081Z,1.50
2023-03-13T07:36:25.966Z,1.50
2023-03-13T07:38:53.669Z,1.50
2023-03-13T07:41:21.577Z,1.73
2023-03-13T07:43:49.159Z,1.40
2023-03-13T07:46:21.636Z,1.90
2023-03-13T07:48:49.604Z,1.60
2023-03-13T07:51:18.285Z,2.07
2023-03-13T07:53:49.885Z,1.90
2023-03-13T07:56:18.952Z,1.83
2023-03-13T07:58:46.606Z,2.00
2023-03-13T08:01:16.883Z,1.70
2023-03-13T08:03:45.454Z,1.80
2023-03-13T08:06:17.268Z,2.20
2023-03-13T08:08:44.753Z,1.50
2023-03-13T08:11:13.703Z,1.87
2023-03-13T08:13:41.466Z,1.97
2023-03-13T08:16:10.284Z,1.57
2023-03-13T08:18:38.882Z,1.60
2023-03-13T08:21:07.791Z,1.73
2023-03-13T08:23:35.753Z,1.90
2023-03-13T08:26:10.975Z,1.60
2023-03-13T08:28:38.876Z,1.70
2023-03-13T08:31:13.751Z,1.50
2023-03-13T08:33:42.768Z,1.67
2023-03-13T08:36:14.468Z,1.53
2023-03-13T08:38:45.996Z,2.17
2023-03-13T08:41:21.497Z,1.57
2023-03-13T08:43:49.214Z,1.97
2023-03-13T08:46:19.543Z,1.50
2023-03-13T08:48:50.668Z,1.40
2023-03-13T08:51:18.743Z,1.50
2023-03-13T08:53:46.216Z,2.00
2023-03-13T08:56:18.370Z,1.77
2023-03-13T08:58:49.860Z,1.83
2023-03-13T09:01:17.455Z,1.70
2023-03-13T09:03:45.120Z,1.63
2023-03-13T09:06:13.084Z,1.40
2023-03-13T09:08:41.143Z,1.80
2023-03-13T09:11:19.199Z,1.20
2023-03-13T09:13:47.813Z,1.53
2023-03-13T09:16:19.600Z,1.77
2023-03-13T09:18:47.460Z,1.80
2023-03-13T09:21:16.946Z,1.60
2023-03-13T09:23:44.516Z,1.70
2023-03-13T09:26:12.272Z,1.67
2023-03-13T09:28:42.064Z,1.60
2023-03-13T09:31:14.682Z,1.70
2023-03-13T09:33:43.059Z,1.23
2023-03-13T09:36:11.152Z,1.50
2023-03-13T09:38:39.635Z,2.47
2023-03-13T09:41:36.553Z,1.83
2023-03-13T09:44:21.440Z,1.77
2023-03-13T09:47:09.249Z,1.30
2023-03-13T09:50:03.246Z,1.47
2023-03-13T09:52:36.479Z,1.70
2023-03-13T09:55:06.226Z,1.50
2023-03-13T09:57:38.960Z,1.40
2023-03-13T10:00:12.932Z,1.67
2023-03-13T10:02:41.020Z,1.40
2023-03-13T10:05:22.582Z,1.70
2023-03-13T10:07:50.502Z,1.20
2023-03-13T10:10:19.847Z,1.20
2023-03-13T10:12:53.172Z,1.30
2023-03-13T10:15:50.385Z,1.20
2023-03-13T10:18:21.695Z,1.33
2023-03-13T10:20:50.834Z,1.20
2023-03-13T10:23:23.353Z,1.20
2023-03-13T10:25:51.006Z,1.57
2023-03-13T10:28:23.057Z,0.90
2023-03-13T10:30:54.750Z,1.30
2023-03-13T10:33:27.028Z,0.97
2023-03-13T10:36:13.792Z,1.10
2023-03-13T10:38:51.603Z,1.30
2023-03-13T10:41:21.109Z,1.20
2023-03-13T10:43:53.258Z,1.20
2023-03-13T10:46:31.464Z,1.20
2023-03-13T10:49:01.646Z,1.00
2023-03-13T10:51:36.719Z,0.90
2023-03-13T10:54:14.345Z,1.00
2023-03-13T10:56:41.906Z,0.93
2023-03-13T10:59:25.650Z,1.10
2023-03-13T11:01:54.470Z,1.17
2023-03-13T11:04:29.647Z,0.70
2023-03-13T11:07:00.017Z,1.20
2023-03-13T11:09:27.819Z,1.00
2023-03-13T11:11:56.959Z,0.93
2023-03-13T11:14:25.840Z,0.80
2023-03-13T11:17:16.492Z,0.70
2023-03-13T11:20:16.528Z,0.70
2023-03-13T11:23:06.481Z,1.00
2023-03-13T11:26:03.432Z,0.90
2023-03-13T11:28:51.208Z,0.93
2023-03-13T11:31:38.633Z,1.00
2023-03-13T11:34:27.866Z,1.07
2023-03-13T11:37:02.651Z,0.83
2023-03-13T11:40:08.510Z,0.90
2023-03-13T11:42:56.347Z,0.77
2023-03-13T11:45:42.726Z,0.60
2023-03-13T11:48:19.343Z,0.80
2023-03-13T11:51:12.990Z,0.67
2023-03-13T11:54:19.653Z,0.70
2023-03-13T11:59:54.189Z,0.80
2023-03-13T12:02:28.766Z,0.70
2023-03-13T12:04:58.416Z,0.87
2023-03-13T12:07:32.953Z,0.80
2023-03-13T12:10:06.427Z,0.80
2023-03-13T12:12:41.554Z,0.80
2023-03-13T12:15:35.386Z,0.87
2023-03-13T12:18:15.905Z,0.93
2023-03-13T12:20:45.993Z,0.63
2023-03-13T12:23:33.741Z,0.80
2023-03-13T12:26:05.384Z,0.43
2023-03-13T12:28:44.311Z,0.70
2023-03-13T12:31:41.257Z,0.50
2023-03-13T12:34:21.203Z,0.50
2023-03-13T12:37:02.657Z,0.87
2023-03-13T12:39:50.191Z,0.60
2023-03-13T12:42:31.050Z,0.60
2023-03-13T12:44:59.869Z,0.40
2023-03-13T12:47:32.746Z,0.60
2023-03-13T12:50:08.588Z,0.70
2023-03-13T12:52:44.895Z,0.60
2023-03-13T12:55:38.845Z,0.60
2023-03-13T12:58:29.661Z,0.73
2023-03-13T13:00:58.047Z,0.60
2023-03-13T13:03:36.936Z,0.73
2023-03-13T13:06:06.586Z,0.77
2023-03-13T13:08:41.584Z,0.80
2023-03-13T13:11:27.871Z,0.80
2023-03-13T13:13:55.332Z,0.60
2023-03-13T13:16:24.212Z,0.50
2023-03-13T13:18:51.993Z,0.60
2023-03-13T13:21:21.032Z,0.70
2023-03-13T13:23:50.699Z,0.53
2023-03-13T13:26:47.713Z,0.70
2023-03-13T13:29:35.487Z,0.70
2023-03-13T13:32:04.308Z,0.53
2023-03-13T13:34:51.991Z,0.70
2023-03-13T13:37:31.573Z,0.80
2023-03-13T13:40:18.865Z,0.53
2023-03-13T13:42:50.618Z,1.23
2023-03-13T13:45:38.300Z,0.60
2023-03-13T13:48:36.621Z,0.73
2023-03-13T13:51:30.224Z,0.70
2023-03-13T13:53:59.841Z,0.73
2023-03-13T13:56:32.472Z,1.07
2023-03-13T13:59:20.318Z,0.70
2023-03-13T14:01:48.624Z,0.70
2023-03-13T14:04:29.413Z,0.60
2023-03-13T14:06:59.782Z,0.70
2023-03-13T14:09:50.346Z,0.70
2023-03-13T14:12:31.436Z,0.63
2023-03-13T14:15:14.552Z,0.70
2023-03-13T14:17:46.624Z,0.60
2023-03-13T14:20:28.113Z,0.60
2023-03-13T14:22:58.354Z,0.70
2023-03-13T14:25:27.490Z,0.70
2023-03-13T14:27:55.819Z,0.70
2023-03-13T14:30:23.585Z,0.80
2023-03-13T14:32:51.549Z,0.90
2023-03-13T14:35:20.870Z,0.60
2023-03-13T14:37:49.425Z,0.83
2023-03-13T14:40:21.350Z,0.60
2023-03-13T14:42:50.235Z,0.70
2023-03-13T14:45:23.009Z,0.70
2023-03-13T14:47:54.141Z,0.50
2023-03-13T14:50:24.892Z,0.67
2023-03-13T14:52:54.049Z,0.53
2023-03-13T14:55:29.168Z,0.80
2023-03-13T14:57:57.605Z,0.57
2023-03-13T15:00:31.827Z,0.87
2023-03-13T15:03:34.786Z,0.60
2023-03-13T15:06:15.413Z,0.80
2023-03-13T15:08:47.232Z,0.80
2023-03-13T15:11:23.365Z,0.70
2023-03-13T15:13:50.967Z,0.60
2023-03-13T15:16:20.384Z,0.87
2023-03-13T15:18:49.276Z,0.80
2023-03-13T15:21:27.732Z,0.70
2023-03-13T15:23:57.522Z,0.50
2023-03-13T15:26:24.994Z,0.80
2023-03-13T15:28:52.468Z,0.70
2023-03-13T15:31:20.914Z,0.93
2023-03-13T15:33:49.461Z,0.70
2023-03-13T15:36:17.163Z,0.70
2023-03-13T15:38:44.665Z,0.90
2023-03-13T15:41:12.340Z,0.60
2023-03-13T15:43:39.770Z,0.60
2023-03-13T15:46:11.840Z,0.70
2023-03-13T15:48:39.616Z,0.80
2023-03-13T15:51:07.233Z,0.90
2023-03-13T15:53:35.868Z,0.70
2023-03-13T15:56:04.229Z,0.80
2023-03-13T15:58:31.770Z,0.80
2023-03-13T16:00:59.489Z,0.80
2023-03-13T16:03:28.411Z,0.87
2023-03-13T16:05:56.413Z,0.93
2023-03-13T16:08:36.722Z,0.80
2023-03-13T16:11:04.993Z,0.90
2023-03-13T16:13:32.670Z,0.70
2023-03-13T16:16:00.111Z,0.70
2023-03-13T16:18:27.589Z,0.70
2023-03-13T16:20:55.114Z,0.70
2023-03-13T16:23:22.548Z,0.80
2023-03-13T16:25:50.050Z,0.90
2023-03-13T16:28:17.502Z,0.70
2023-03-13T16:30:45.441Z,0.80
2023-03-13T16:33:12.877Z,0.70
2023-03-13T16:35:40.490Z,0.83
2023-03-13T16:38:08.711Z,0.97
2023-03-13T16:40:36.173Z,0.80
2023-03-13T16:43:03.655Z,0.70
2023-03-13T16:45:31.122Z,0.87
2023-03-13T16:47:58.601Z,1.00
2023-03-13T16:50:27.794Z,1.10
2023-03-13T16:52:55.397Z,1.20
2023-03-13T16:55:28.229Z,0.80
2023-03-13T16:57:59.132Z,1.40
2023-03-13T17:00:28.663Z,1.10
2023-03-13T17:02:57.766Z,1.20
2023-03-13T17:05:25.716Z,0.73
2023-03-13T17:07:53.359Z,0.83
2023-03-13T17:10:28.514Z,1.50
2023-03-13T17:12:56.345Z,1.47
2023-03-13T17:15:24.288Z,1.20
2023-03-13T17:17:52.365Z,1.40
2023-03-13T17:20:23.894Z,0.80
2023-03-13T17:22:51.704Z,1.00
2023-03-13T17:25:19.680Z,1.03
2023-03-13T17:27:48.614Z,1.17
2023-03-13T17:30:20.472Z,1.07
2023-03-13T17:32:49.803Z,1.30
2023-03-13T17:35:17.650Z,1.40
2023-03-13T17:37:45.150Z,1.20
2023-03-13T17:40:26.758Z,1.20
2023-03-13T17:42:55.482Z,0.90
2023-03-13T17:45:22.912Z,1.10
2023-03-13T17:47:50.493Z,1.07
2023-03-13T17:50:22.604Z,1.20
2023-03-13T17:52:50.144Z,1.13
2023-03-13T17:55:17.691Z,1.40
2023-03-13T17:57:45.284Z,1.20
2023-03-13T18:00:18.343Z,1.30
2023-03-13T18:02:45.850Z,1.30
2023-03-13T18:05:13.419Z,1.27
2023-03-13T18:07:44.407Z,1.33
2023-03-13T18:10:14.577Z,1.57
2023-03-13T18:12:42.002Z,1.13
2023-03-13T18:15:09.834Z,1.40
2023-03-13T18:17:37.361Z,1.53
2023-03-13T18:20:10.050Z,1.47
2023-03-13T18:22:37.649Z,1.20
2023-03-13T18:25:05.319Z,1.10
2023-03-13T18:27:32.856Z,1.30
2023-03-13T18:30:00.307Z,1.27
2023-03-13T18:32:27.844Z,1.00
2023-03-13T18:34:55.324Z,1.27
2023-03-13T18:37:26.220Z,1.30
2023-03-13T18:39:55.793Z,1.10
2023-03-13T18:42:23.738Z,1.20
2023-03-13T18:44:51.801Z,1.07
2023-03-13T18:47:20.281Z,1.20
2023-03-13T18:49:48.858Z,1.70
2023-03-13T18:52:17.452Z,1.63
2023-03-13T18:54:45.386Z,1.30
2023-03-13T18:57:13.859Z,1.30
2023-03-13T18:59:41.353Z,1.10
2023-03-13T19:02:12.924Z,1.10
2023-03-13T19:04:40.405Z,1.67
2023-03-13T19:07:12.778Z,1.50
2023-03-13T19:09:44.742Z,0.93
2023-03-13T19:12:15.577Z,1.30
2023-03-13T19:14:43.356Z,1.23
2023-03-13T19:17:21.132Z,1.20
2023-03-13T19:19:48.664Z,1.20
2023-03-13T19:22:16.133Z,1.10
2023-03-13T19:24:44.012Z,1.27
2023-03-13T19:27:13.386Z,1.20
2023-03-13T19:29:41.022Z,1.30
2023-03-13T19:32:13.065Z,1.20
2023-03-13T19:34:40.636Z,1.33
2023-03-13T19:37:10.462Z,1.20
2023-03-13T19:39:37.974Z,0.90
2023-03-13T19:42:07.015Z,1.10
2023-03-13T19:44:35.225Z,1.20
2023-03-13T19:47:02.834Z,4.53
2023-03-13T19:49:31.241Z,1.60
2023-03-13T19:51:58.816Z,1.40
2023-03-13T19:54:26.543Z,1.60
2023-03-13T19:56:53.986Z,1.63
2023-03-13T19:59:23.679Z,1.00
2023-03-13T20:01:50.896Z,0.90
2023-03-13T20:04:18.366Z,0.90
2023-03-13T20:06:45.861Z,0.93
2023-03-13T20:09:15.823Z,0.80
2023-03-13T20:11:43.682Z,0.90
2023-03-13T20:14:11.240Z,0.67
2023-03-13T20:16:39.032Z,0.80
2023-03-13T20:19:06.544Z,0.87
2023-03-13T20:21:36.101Z,0.90
2023-03-13T20:24:03.660Z,0.90
2023-03-13T20:26:31.061Z,0.70
2023-03-13T20:28:58.996Z,0.70
2023-03-13T20:31:28.657Z,0.70
2023-03-13T20:33:56.997Z,0.60
2023-03-13T20:36:24.765Z,0.90
2023-03-13T20:38:51.990Z,0.90
2023-03-13T20:41:25.206Z,0.90
2023-03-13T20:43:53.113Z,0.90
2023-03-13T20:46:20.759Z,1.07
2023-03-13T20:48:48.050Z,0.90
2023-03-13T20:51:15.609Z,1.10
2023-03-13T20:53:43.316Z,0.67
2023-03-13T20:56:11.664Z,0.70
2023-03-13T20:58:39.467Z,0.93
2023-03-13T21:01:07.410Z,0.77
2023-03-13T21:03:36.019Z,1.20
2023-03-13T21:06:15.760Z,0.70
2023-03-13T21:08:44.084Z,0.70
2023-03-13T21:11:16.711Z,1.20
2023-03-13T21:13:44.227Z,1.07
2023-03-13T21:16:13.200Z,1.00
2023-03-13T21:18:40.533Z,0.80
2023-03-13T21:21:10.840Z,0.97
2023-03-13T21:23:38.646Z,0.73
2023-03-13T21:26:06.392Z,0.73
2023-03-13T21:28:33.902Z,0.80
2023-03-13T21:31:08.697Z,0.93
2023-03-13T21:33:35.897Z,0.80
2023-03-13T21:36:03.122Z,1.10
2023-03-13T21:38:30.476Z,1.00
2023-03-13T21:40:58.536Z,0.80
2023-03-13T21:43:28.195Z,1.00
2023-03-13T21:45:59.647Z,1.03
2023-03-13T21:48:26.896Z,0.80
2023-03-13T21:50:54.313Z,1.00
2023-03-13T21:53:21.461Z,1.37
2023-03-13T21:55:52.358Z,1.20
2023-03-13T21:58:19.582Z,1.00
2023-03-13T22:00:46.676Z,0.97
2023-03-13T22:03:13.813Z,0.80
2023-03-13T22:05:44.658Z,0.57
2023-03-13T22:08:11.982Z,0.83
2023-03-13T22:10:39.843Z,0.80
2023-03-13T22:13:08.442Z,0.80
2023-03-13T22:15:35.642Z,0.93
2023-03-13T22:18:02.937Z,0.80
2023-03-13T22:20:30.049Z,0.90
2023-03-13T22:22:57.159Z,1.20
2023-03-13T22:25:24.217Z,1.20
2023-03-13T22:27:51.436Z,1.10
2023-03-13T22:30:18.681Z,1.03
2023-03-13T22:32:45.830Z,0.80
2023-03-13T22:35:13.005Z,0.70
2023-03-13T22:37:40.326Z,1.30
2023-03-13T22:40:08.275Z,1.27
2023-03-13T22:42:35.422Z,0.67
2023-03-13T22:45:02.646Z,1.10
2023-03-13T22:47:29.821Z,0.70
2023-03-13T22:49:56.992Z,0.60
2023-03-13T22:52:30.760Z,0.73
2023-03-13T22:54:58.381Z,1.50
2023-03-13T22:57:25.474Z,0.90
2023-03-13T22:59:53.935Z,0.80
2023-03-13T23:02:21.449Z,1.10
2023-03-13T23:04:48.629Z,0.50
2023-03-13T23:07:15.724Z,0.87
2023-03-13T23:09:43.069Z,0.90
2023-03-13T23:12:10.385Z,0.80
2023-03-13T23:14:37.704Z,0.80
2023-03-13T23:17:05.280Z,0.63
2023-03-13T23:19:35.513Z,0.70
2023-03-13T23:22:02.632Z,0.87
2023-03-13T23:24:29.866Z,0.80
2023-03-13T23:26:56.918Z,0.80
2023-03-13T23:29:24.041Z,1.10
2023-03-13T23:31:51.508Z,0.70
2023-03-13T23:34:21.965Z,0.60
2023-03-13T23:36:49.897Z,0.80
2023-03-13T23:39:16.986Z,1.10
2023-03-13T23:41:44.258Z,0.93
2023-03-13T23:44:11.347Z,0.80
2023-03-13T23:46:38.455Z,0.70
2023-03-13T23:49:05.541Z,0.80
2023-03-13T23:51:32.849Z,0.70
2023-03-13T23:54:00.848Z,0.70
2023-03-13T23:56:29.649Z,0.50
2023-03-13T23:58:56.854Z,0.73
